Time;durP1;ratioP1;P1;durP2;ratioP2;P2;SDS_P1;SDS_P2;PMS_P1;PMS_P2;Temp;Humidity;BMP_temperature;BMP_pressure;BME280_temperature;BME280_humidity;BME280_pressure;Samples;Min_cycle;Max_cycle;Signal;HPM_P1;HPM_P2
2023/06/12 00:01:31;;;;;;;13.30;5.45;;;;;;;22.22;40.02;101411.88;5027689;28;20112;-82
2023/06/12 00:03:57;;;;;;;11.25;5.38;;;;;;;22.16;39.87;101402.59;5035568;28;20491;-82
2023/06/12 00:06:22;;;;;;;13.05;5.82;;;;;;;22.14;40.14;101415.47;5031541;28;20017;-82
2023/06/12 00:08:48;;;;;;;7.97;5.50;;;;;;;22.06;40.11;101399.28;5036820;28;20029;-82
2023/06/12 00:11:13;;;;;;;7.47;5.00;;;;;;;22.04;40.38;101409.44;5030676;28;20120;-82
2023/06/12 00:13:40;;;;;;;7.65;5.70;;;;;;;22.01;40.65;101402.53;5037132;28;20021;-83
2023/06/12 00:16:06;;;;;;;9.68;5.72;;;;;;;22.00;40.47;101411.69;5031177;28;20030;-83
2023/06/12 00:18:31;;;;;;;6.57;5.38;;;;;;;21.91;41.14;101410.88;5031375;28;20033;-82
2023/06/12 00:20:56;;;;;;;7.00;5.30;;;;;;;21.83;41.10;101407.38;5036028;28;20048;-82
2023/06/12 00:23:22;;;;;;;8.43;5.45;;;;;;;21.82;40.94;101406.53;5034751;28;20298;-82
2023/06/12 00:25:47;;;;;;;6.85;5.20;;;;;;;21.78;41.26;101402.50;5035762;28;20034;-82
2023/06/12 00:28:12;;;;;;;6.65;5.03;;;;;;;21.72;41.51;101400.53;5037663;28;20021;-82
2023/06/12 00:30:38;;;;;;;9.32;5.70;;;;;;;21.75;41.44;101408.25;5035206;28;20045;-82
2023/06/12 00:33:03;;;;;;;6.25;5.47;;;;;;;21.73;41.85;101402.19;5039420;28;20063;-82
2023/06/12 00:35:28;;;;;;;6.63;5.37;;;;;;;21.62;42.26;101396.16;5040235;28;20086;-82
2023/06/12 00:37:55;;;;;;;8.10;5.43;;;;;;;21.64;41.64;101400.56;5043083;28;20284;-82
2023/06/12 00:40:20;;;;;;;8.07;5.68;;;;;;;21.62;42.04;101411.56;5040415;28;20026;-82
2023/06/12 00:42:48;;;;;;;6.85;5.30;;;;;;;21.54;42.49;101400.78;5044480;28;20040;-82
2023/06/12 00:45:15;;;;;;;6.93;5.10;;;;;;;21.51;42.87;101398.44;5037151;28;20045;-82
2023/06/12 00:47:42;;;;;;;7.13;5.18;;;;;;;21.49;42.83;101406.72;5034107;28;20029;-82
2023/06/12 00:50:12;;;;;;;8.60;5.32;;;;;;;21.45;43.19;101402.66;5028925;28;20025;-82
2023/06/12 00:52:44;;;;;;;10.90;5.38;;;;;;;21.41;43.26;101409.41;5033577;28;20018;-82
2023/06/12 00:55:11;;;;;;;7.95;5.38;;;;;;;21.35;43.45;101404.69;5036341;28;20052;-82
2023/06/12 00:57:38;;;;;;;8.32;5.43;;;;;;;21.28;43.26;101401.84;5039079;28;20049;-82
2023/06/12 01:00:06;;;;;;;7.40;5.55;;;;;;;21.18;43.15;101404.78;5042984;28;20037;-82
2023/06/12 01:02:33;;;;;;;8.48;5.75;;;;;;;21.20;42.90;101399.19;5041827;28;20033;-82
2023/06/12 01:04:59;;;;;;;10.48;5.80;;;;;;;21.06;42.98;101396.19;5045909;28;20036;-82
2023/06/12 01:07:33;;;;;;;8.27;6.18;;;;;;;20.99;43.51;101388.97;5041159;28;20021;-82
2023/06/12 01:10:16;;;;;;;8.48;5.72;;;;;;;21.04;43.14;101402.78;5043724;28;20037;-82
2023/06/12 01:12:43;;;;;;;9.85;5.75;;;;;;;20.97;43.19;101407.22;5030587;28;20018;-82
2023/06/12 01:15:09;;;;;;;8.77;5.20;;;;;;;21.01;43.45;101405.84;5024988;28;20362;-82
2023/06/12 01:17:35;;;;;;;7.10;5.60;;;;;;;20.96;43.38;101408.22;5032746;28;20037;-81
2023/06/12 01:20:03;;;;;;;8.07;6.05;;;;;;;20.86;43.42;101403.81;5030227;28;20089;-82
2023/06/12 01:22:30;;;;;;;6.95;5.32;;;;;;;20.79;44.20;101393.91;5029666;28;20491;-82
2023/06/12 01:25:32;;;;;;;9.68;5.70;;;;;;;20.89;43.08;101402.66;5027813;28;20048;-82
2023/06/12 01:28:18;;;;;;;8.38;5.72;;;;;;;20.78;43.84;101406.53;5035772;28;20057;-82
2023/06/12 01:30:54;;;;;;;9.00;6.20;;;;;;;;;;5026254;28;20030;-82
2023/06/12 01:33:30;;;;;;;8.38;5.72;;;;;;;20.72;44.40;101403.69;5029019;28;20025;-82
2023/06/12 01:35:58;;;;;;;8.05;5.80;;;;;;;20.63;44.00;101409.13;5032279;28;20342;-82
2023/06/12 01:38:27;;;;;;;8.93;5.80;;;;;;;20.54;44.82;101402.00;5031283;28;20087;-82
2023/06/12 01:40:53;;;;;;;8.32;5.70;;;;;;;20.54;44.44;101403.84;5029159;28;20030;-82
2023/06/12 01:43:22;;;;;;;6.65;5.65;;;;;;;20.42;44.83;101403.34;5028384;28;20025;-82
2023/06/12 01:45:47;;;;;;;;;;;;;;;20.61;43.00;101412.94;5044894;28;20030;-82
2023/06/12 01:48:14;;;;;;;8.37;5.70;;;;;;;20.43;44.64;101411.25;5031565;28;19916;-82
2023/06/12 01:50:40;;;;;;;8.88;6.00;;;;;;;20.34;44.92;101404.19;5026428;28;20372;-82
2023/06/12 01:53:07;;;;;;;9.43;5.93;;;;;;;20.28;44.93;101412.94;5035195;28;20029;-82
2023/06/12 01:55:33;;;;;;;13.45;5.80;;;;;;;20.28;45.00;101407.53;5036172;28;20021;-82
2023/06/12 01:57:58;;;;;;;13.00;6.07;;;;;;;20.24;45.09;101398.13;5030746;28;20419;-82
2023/06/12 02:00:24;;;;;;;9.10;6.18;;;;;;;20.21;45.19;101407.38;5038054;28;20036;-82
2023/06/12 02:02:56;;;;;;;7.38;5.35;;;;;;;20.15;45.17;101403.50;5030601;28;20075;-82
2023/06/12 02:05:22;;;;;;;10.95;6.38;;;;;;;20.17;44.99;101413.25;5036099;28;20028;-82
2023/06/12 02:07:47;;;;;;;7.57;5.85;;;;;;;20.12;45.73;101417.31;5034963;28;20060;-82
2023/06/12 02:10:13;;;;;;;7.60;5.88;;;;;;;20.06;45.60;101417.97;5030566;28;20038;-82
2023/06/12 02:12:38;;;;;;;9.50;6.00;;;;;;;20.04;45.57;101408.38;5036429;28;20056;-82
2023/06/12 02:15:04;;;;;;;8.07;6.05;;;;;;;19.96;46.61;101409.19;5028064;28;20335;-82
2023/06/12 02:17:32;;;;;;;8.18;6.22;;;;;;;19.94;46.55;101395.88;5034961;28;20089;-82
2023/06/12 02:19:58;;;;;;;8.57;6.40;;;;;;;19.87;46.63;101405.66;5036048;28;20476;-82
2023/06/12 02:22:23;;;;;;;8.88;6.07;;;;;;;19.90;47.07;101413.41;5034177;28;20048;-82
2023/06/12 02:24:48;;;;;;;11.68;5.72;;;;;;;19.89;46.65;101405.47;5038531;28;20127;-82
2023/06/12 02:27:14;;;;;;;12.27;6.20;;;;;;;19.83;47.29;101406.97;5033924;28;20594;-82
2023/06/12 02:29:39;;;;;;;7.82;5.75;;;;;;;19.78;47.03;101399.41;5047864;28;20472;-82
2023/06/12 02:32:05;;;;;;;7.15;5.97;;;;;;;19.77;47.17;101397.69;5051194;28;20017;-81
2023/06/12 02:34:30;;;;;;;9.35;6.18;;;;;;;19.72;47.36;101400.00;5041477;28;20079;-82
2023/06/12 02:36:55;;;;;;;8.00;5.73;;;;;;;19.67;47.40;101396.97;5046867;28;20033;-82
2023/06/12 02:39:21;;;;;;;7.30;6.17;;;;;;;19.68;47.51;101395.09;5050605;28;20284;-81
2023/06/12 02:41:48;;;;;;;10.68;6.57;;;;;;;19.63;47.36;101398.28;5045273;28;20347;-81
2023/06/12 02:44:13;;;;;;;8.48;6.10;;;;;;;19.59;47.48;101392.38;5035106;28;20426;-81
2023/06/12 02:46:52;;;;;;;7.88;6.15;;;;;;;19.63;46.88;101406.38;5028066;28;20076;-81
2023/06/12 02:49:18;;;;;;;;;;;;;;;19.73;45.96;101406.25;5030434;28;20037;-81
2023/06/12 02:51:44;;;;;;;11.13;5.97;;;;;;;19.54;47.61;101397.44;5035500;28;19925;-82
2023/06/12 02:54:09;;;;;;;9.70;6.75;;;;;;;19.52;48.25;101396.75;5030262;28;20476;-82
2023/06/12 02:56:34;;;;;;;10.75;6.50;;;;;;;19.47;48.47;101401.78;5034320;28;20106;-82
2023/06/12 02:59:00;;;;;;;9.37;6.63;;;;;;;19.41;48.57;101397.88;5032319;28;20040;-82
2023/06/12 03:01:26;;;;;;;8.75;6.65;;;;;;;19.38;49.29;101398.22;5031003;28;20284;-82
2023/06/12 03:03:52;;;;;;;11.60;6.78;;;;;;;19.36;48.55;101391.28;5028789;28;20025;-82
2023/06/12 03:06:18;;;;;;;8.95;6.32;;;;;;;19.31;49.72;101391.78;5027439;28;20053;-82
2023/06/12 03:08:44;;;;;;;10.95;6.53;;;;;;;19.31;49.59;101401.72;5031751;28;20455;-82
2023/06/12 03:11:09;;;;;;;9.25;6.07;;;;;;;19.26;49.80;101395.97;5034746;28;20029;-82
2023/06/12 03:13:34;;;;;;;9.73;7.57;;;;;;;19.25;49.18;101399.66;5038967;28;20081;-81
2023/06/12 03:16:00;;;;;;;8.98;7.00;;;;;;;19.19;49.98;101398.47;5044381;28;20022;-81
2023/06/12 03:18:25;;;;;;;8.90;6.47;;;;;;;19.10;50.08;101394.03;5045998;28;20021;-81
2023/06/12 03:20:51;;;;;;;11.73;6.55;;;;;;;19.11;50.04;101393.03;5043054;28;20049;-81
2023/06/12 03:23:16;;;;;;;12.57;7.25;;;;;;;19.15;49.82;101406.03;5044498;28;20100;-81
2023/06/12 03:25:41;;;;;;;10.63;6.82;;;;;;;19.11;49.83;101410.03;5039772;28;20026;-81
2023/06/12 03:28:07;;;;;;;8.43;6.97;;;;;;;19.09;50.29;101403.97;5042945;28;20465;-81
2023/06/12 03:30:32;;;;;;;9.45;6.85;;;;;;;19.01;50.13;101401.22;5038660;28;20053;-81
2023/06/12 03:32:58;;;;;;;10.45;6.25;;;;;;;19.03;50.90;101409.97;5042781;28;20041;-81
2023/06/12 03:35:24;;;;;;;7.65;6.30;;;;;;;18.92;50.12;101411.09;5039865;28;20022;-81
2023/06/12 03:37:50;;;;;;;10.60;7.00;;;;;;;18.88;50.00;101408.88;5033455;28;20060;-81
2023/06/12 03:40:15;;;;;;;7.10;6.40;;;;;;;18.85;49.97;101412.72;5042628;28;20033;-81
2023/06/12 03:42:40;;;;;;;10.65;6.85;;;;;;;18.81;50.31;101414.84;5038072;28;20333;-82
2023/06/12 03:45:06;;;;;;;9.97;6.53;;;;;;;18.80;50.06;101425.78;5042141;28;20037;-82
2023/06/12 03:47:31;;;;;;;9.00;6.93;;;;;;;18.78;50.32;101423.25;5039630;28;20759;-81
2023/06/12 03:49:57;;;;;;;10.77;6.80;;;;;;;18.75;50.52;101420.88;5035367;28;20056;-82
2023/06/12 03:52:22;;;;;;;12.10;7.65;;;;;;;18.75;50.71;101417.31;5041135;28;20296;-82
2023/06/12 03:54:49;;;;;;;12.27;7.47;;;;;;;18.75;50.93;101425.41;5042067;28;20025;-81
2023/06/12 03:57:14;;;;;;;11.82;8.07;;;;;;;18.65;51.41;101414.72;5038293;28;20025;-81
2023/06/12 03:59:39;;;;;;;10.68;7.72;;;;;;;18.73;51.15;101416.66;5034943;28;20032;-82
2023/06/12 04:02:05;;;;;;;10.88;7.68;;;;;;;18.65;51.53;101426.34;5042499;28;20041;-82
2023/06/12 04:04:32;;;;;;;11.38;8.02;;;;;;;18.67;51.31;101426.22;5044474;28;20029;-82
2023/06/12 04:06:59;;;;;;;9.35;7.35;;;;;;;18.64;52.06;101424.66;5044454;28;20103;-81
2023/06/12 04:09:25;;;;;;;13.40;7.85;;;;;;;18.64;52.22;101424.66;5039629;28;20086;-82
2023/06/12 04:11:50;;;;;;;10.85;8.73;;;;;;;18.72;51.81;101433.78;5043513;28;20061;-82
2023/06/12 04:14:15;;;;;;;16.27;7.90;;;;;;;18.71;52.34;101445.56;5042922;28;20052;-82
2023/06/12 04:16:41;;;;;;;9.85;7.80;;;;;;;18.64;52.73;101434.59;5036519;28;20057;-81
2023/06/12 04:19:06;;;;;;;16.42;9.07;;;;;;;18.70;52.16;101442.00;5027729;28;20022;-81
2023/06/12 04:21:33;;;;;;;15.05;9.05;;;;;;;18.70;52.25;101441.19;5035443;28;20045;-81
2023/06/12 04:24:00;;;;;;;13.95;8.18;;;;;;;18.64;53.05;101440.81;5034481;28;20375;-81
2023/06/12 04:26:26;;;;;;;15.07;8.73;;;;;;;18.63;52.23;101438.25;5024354;28;20027;-81
2023/06/12 04:28:53;;;;;;;14.68;8.40;;;;;;;18.62;52.44;101445.50;5032383;28;20083;-80
2023/06/12 04:31:19;;;;;;;12.07;7.90;;;;;;;18.64;52.66;101443.50;5027604;28;20464;-81
2023/06/12 04:33:44;;;;;;;12.77;7.65;;;;;;;18.67;52.54;101442.34;5034230;28;20044;-80
2023/06/12 04:36:17;;;;;;;11.63;8.43;;;;;;;18.73;52.30;101446.25;5019676;28;20029;-80
2023/06/12 04:38:43;;;;;;;15.38;9.23;;;;;;;18.69;52.61;101440.34;5028032;28;20260;-80
2023/06/12 04:41:11;;;;;;;12.48;8.07;;;;;;;18.72;52.57;101434.66;5034553;28;20032;-81
2023/06/12 04:43:37;;;;;;;9.77;7.93;;;;;;;18.83;52.48;101438.94;5034783;28;20030;-81
2023/06/12 04:46:02;;;;;;;14.98;8.63;;;;;;;18.81;52.47;101433.69;5035142;28;20043;-81
2023/06/12 04:48:28;;;;;;;17.10;8.98;;;;;;;18.92;52.69;101440.72;5036808;28;20468;-81
2023/06/12 04:50:54;;;;;;;11.65;8.60;;;;;;;18.97;51.93;101426.78;5034844;28;20032;-82
2023/06/12 04:53:29;;;;;;;17.90;9.30;;;;;;;19.16;51.92;101444.56;5035236;28;20017;-82
2023/06/12 04:55:56;;;;;;;12.20;8.45;;;;;;;19.26;52.11;101445.28;5036913;28;20473;-81
2023/06/12 04:58:21;;;;;;;14.45;8.45;;;;;;;19.29;51.81;101434.19;5037054;28;20021;-81
2023/06/12 05:00:47;;;;;;;16.00;9.00;;;;;;;19.46;51.57;101451.28;5036980;28;20029;-81
2023/06/12 05:03:17;;;;;;;14.70;9.05;;;;;;;19.51;50.81;101448.09;5036027;28;20034;-81
2023/06/12 05:05:45;;;;;;;11.60;8.85;;;;;;;19.69;50.66;101454.25;5027030;28;20028;-82
2023/06/12 05:08:11;;;;;;;14.98;8.68;;;;;;;19.75;50.82;101450.94;5035152;28;20040;-81
2023/06/12 05:10:37;;;;;;;14.00;9.05;;;;;;;19.91;50.33;101455.53;5036357;28;20022;-82
2023/06/12 05:13:03;;;;;;;15.82;8.45;;;;;;;20.01;50.25;101451.84;5037097;28;20029;-82
2023/06/12 05:15:28;;;;;;;18.98;9.20;;;;;;;20.06;49.57;101446.81;5036382;28;20033;-81
2023/06/12 05:17:54;;;;;;;16.40;8.75;;;;;;;20.07;48.90;101446.63;5036890;28;20139;-81
2023/06/12 05:20:19;;;;;;;11.63;8.80;;;;;;;20.12;49.56;101452.38;5036704;28;20021;-81
2023/06/12 05:22:45;;;;;;;13.23;8.63;;;;;;;20.16;49.79;101444.78;5037247;28;20077;-81
2023/06/12 05:25:10;;;;;;;15.73;9.02;;;;;;;20.14;49.57;101447.66;5036002;28;20018;-81
2023/06/12 05:27:36;;;;;;;15.73;9.07;;;;;;;20.30;49.67;101449.53;5024245;28;20041;-81
2023/06/12 05:30:02;;;;;;;12.30;8.70;;;;;;;20.40;49.92;101457.47;5039951;28;20022;-81
2023/06/12 05:32:28;;;;;;;16.13;8.70;;;;;;;20.54;49.14;101455.13;5037253;28;20479;-81
2023/06/12 05:34:53;;;;;;;15.77;8.90;;;;;;;20.67;48.93;101452.81;5027178;28;20048;-82
2023/06/12 05:37:21;;;;;;;17.88;10.55;;;;;;;20.82;48.22;101453.78;5038502;28;20471;-81
2023/06/12 05:39:46;;;;;;;15.35;10.00;;;;;;;21.04;48.06;101446.00;5029487;28;20038;-81
2023/06/12 05:42:12;;;;;;;11.45;9.35;;;;;;;21.28;47.77;101446.94;5039157;28;20041;-81
2023/06/12 05:44:37;;;;;;;12.77;9.57;;;;;;;21.44;46.71;101447.72;5037542;28;20021;-82
2023/06/12 05:47:03;;;;;;;14.30;9.55;;;;;;;21.72;46.65;101446.50;5026680;28;20281;-81
2023/06/12 05:49:28;;;;;;;10.10;8.93;;;;;;;21.95;46.41;101439.25;5047295;28;20077;-82
2023/06/12 05:51:53;;;;;;;15.63;10.00;;;;;;;22.11;45.90;101445.56;5038317;28;20034;-81
2023/06/12 05:54:18;;;;;;;14.05;9.88;;;;;;;22.30;44.85;101441.56;5046589;28;20302;-81
2023/06/12 05:56:44;;;;;;;16.75;10.25;;;;;;;22.49;44.62;101430.28;5029010;28;20026;-82
2023/06/12 05:59:09;;;;;;;11.30;10.10;;;;;;;22.76;44.44;101432.59;5039676;28;20056;-81
2023/06/12 06:01:35;;;;;;;13.93;9.20;;;;;;;22.89;43.89;101422.78;5026816;28;20026;-82
2023/06/12 06:04:01;;;;;;;14.77;9.40;;;;;;;23.13;43.55;101433.59;5037907;28;20044;-82
2023/06/12 06:06:26;;;;;;;13.05;9.38;;;;;;;23.32;42.53;101429.50;5039718;28;20029;-81
2023/06/12 06:08:51;;;;;;;15.77;9.27;;;;;;;23.43;41.67;101438.00;5040126;28;20037;-82
2023/06/12 06:11:17;;;;;;;14.53;8.60;;;;;;;23.71;41.41;101433.75;5050630;28;20031;-81
2023/06/12 06:13:43;;;;;;;12.90;8.40;;;;;;;23.88;41.16;101440.66;5047567;28;20298;-80
2023/06/12 06:16:10;;;;;;;12.35;8.73;;;;;;;24.15;41.09;101432.81;5037276;28;20311;-81
2023/06/12 06:18:37;;;;;;;13.43;8.25;;;;;;;24.37;40.85;101436.34;5048704;28;20487;-82
2023/06/12 06:21:02;;;;;;;17.75;8.85;;;;;;;24.52;39.78;101430.84;5050918;28;20045;-82
2023/06/12 06:23:28;;;;;;;12.45;8.18;;;;;;;24.73;39.84;101446.28;5048499;28;20036;-82
2023/06/12 06:25:54;;;;;;;13.07;8.63;;;;;;;24.87;39.06;101448.09;5046202;28;20033;-82
2023/06/12 06:28:19;;;;;;;11.52;7.95;;;;;;;25.02;38.95;101444.44;5039528;28;20464;-82
2023/06/12 06:30:45;;;;;;;11.85;8.20;;;;;;;25.15;38.36;101444.53;5027180;28;20021;-82
2023/06/12 06:33:10;;;;;;;14.15;7.50;;;;;;;25.21;37.96;101446.41;5034354;28;20487;-82
2023/06/12 06:35:35;;;;;;;10.55;7.50;;;;;;;25.26;37.52;101446.72;5051470;28;20029;-82
2023/06/12 06:38:01;;;;;;;14.60;7.67;;;;;;;25.48;37.46;101443.91;5037201;28;20058;-83
2023/06/12 06:40:26;;;;;;;13.70;7.13;;;;;;;25.67;37.30;101443.13;5038561;28;20271;-82
2023/06/12 06:42:54;;;;;;;14.07;7.22;;;;;;;25.74;37.27;101445.88;5029269;28;20276;-82
2023/06/12 06:45:20;;;;;;;9.30;6.32;;;;;;;25.94;37.02;101443.22;5039263;28;20411;-82
2023/06/12 06:47:45;;;;;;;13.30;6.35;;;;;;;26.10;36.42;101443.94;5039315;28;20036;-82
2023/06/12 06:50:11;;;;;;;10.95;6.32;;;;;;;26.26;36.13;101450.84;5032141;28;20022;-82
2023/06/12 06:52:37;;;;;;;11.73;5.65;;;;;;;26.36;35.38;101452.16;5039290;28;20587;-82
2023/06/12 06:55:02;;;;;;;12.48;5.97;;;;;;;26.60;35.38;101449.84;5038970;28;20107;-83
2023/06/12 06:57:28;;;;;;;9.43;5.75;;;;;;;26.91;35.67;101442.94;5045199;28;20032;-83
2023/06/12 06:59:55;;;;;;;15.05;5.38;;;;;;;27.16;34.30;101443.09;5030352;28;20381;-83
2023/06/12 07:02:21;;;;;;;9.43;5.40;;;;;;;27.23;34.17;101443.06;5037978;28;20021;-83
2023/06/12 07:04:46;;;;;;;8.25;5.35;;;;;;;27.37;34.24;101442.03;5034137;28;20112;-82
2023/06/12 07:07:12;;;;;;;11.82;5.78;;;;;;;27.58;34.52;101434.59;5035527;28;20033;-82
2023/06/12 07:09:38;;;;;;;10.75;6.05;;;;;;;27.76;33.77;101426.56;5036935;28;20033;-82
2023/06/12 07:12:03;;;;;;;9.10;5.40;;;;;;;28.05;33.36;101443.44;5039124;28;20030;-82
2023/06/12 07:14:28;;;;;;;7.93;5.40;;;;;;;28.05;32.40;101435.25;5032968;28;20295;-83
2023/06/12 07:16:54;;;;;;;6.20;4.90;;;;;;;28.22;32.74;101428.19;5039325;28;20033;-83
2023/06/12 07:19:19;;;;;;;11.18;5.63;;;;;;;28.30;31.49;101432.53;5034684;28;20814;-83
2023/06/12 07:21:45;;;;;;;13.77;5.85;;;;;;;28.49;32.12;101419.78;5039047;28;20041;-83
2023/06/12 07:24:12;;;;;;;8.55;4.82;;;;;;;28.53;30.61;101421.00;5035264;28;20499;-82
2023/06/12 07:26:37;;;;;;;11.88;5.43;;;;;;;28.70;30.74;101423.22;5037672;28;20021;-82
2023/06/12 07:29:03;;;;;;;11.45;5.28;;;;;;;28.98;30.90;101431.75;5038585;28;20042;-83
2023/06/12 07:31:29;;;;;;;7.40;5.47;;;;;;;28.99;30.44;101429.84;5033824;28;20026;-83
2023/06/12 07:33:54;;;;;;;8.02;5.35;;;;;;;29.08;30.23;101427.69;5038749;28;20485;-83
2023/06/12 07:36:19;;;;;;;12.57;5.10;;;;;;;29.29;30.64;101415.47;5031149;28;20036;-82
2023/06/12 07:38:45;;;;;;;7.30;5.30;;;;;;;29.32;30.32;101424.06;5039187;28;20042;-82
2023/06/12 07:41:10;;;;;;;8.77;5.20;;;;;;;29.40;30.23;101420.19;5031596;28;20334;-83
2023/06/12 07:43:35;;;;;;;7.93;5.10;;;;;;;29.73;30.08;101421.66;5036160;28;20035;-82
2023/06/12 07:46:01;;;;;;;7.23;5.23;;;;;;;29.81;29.50;101426.84;5038638;28;20030;-82
2023/06/12 07:48:27;;;;;;;8.13;4.95;;;;;;;30.08;30.70;101419.06;5035403;28;20276;-82
2023/06/12 07:50:52;;;;;;;6.22;4.70;;;;;;;30.34;29.26;101413.41;5039205;28;20029;-82
2023/06/12 07:53:17;;;;;;;8.47;4.70;;;;;;;30.43;29.22;101421.06;5036049;28;20631;-83
2023/06/12 07:55:43;;;;;;;10.60;5.20;;;;;;;30.43;28.20;101417.50;5044931;28;20288;-82
2023/06/12 07:58:09;;;;;;;6.85;4.32;;;;;;;30.56;28.18;101417.28;5035819;28;20344;-83
2023/06/12 08:00:35;;;;;;;8.05;4.93;;;;;;;30.63;28.48;101425.38;5031828;28;20025;-83
2023/06/12 08:03:02;;;;;;;7.65;4.50;;;;;;;30.85;27.99;101414.66;5037940;28;20108;-83
2023/06/12 08:05:27;;;;;;;7.75;4.68;;;;;;;31.04;27.53;101415.38;5035511;28;20029;-84
2023/06/12 08:07:53;;;;;;;7.57;4.70;;;;;;;30.99;27.82;101416.13;5031424;28;20025;-83
2023/06/12 08:10:18;;;;;;;7.75;5.10;;;;;;;31.03;27.07;101415.59;5035323;28;20029;-82
2023/06/12 08:12:44;;;;;;;10.82;4.70;;;;;;;31.26;27.12;101403.75;5036832;28;20029;-82
2023/06/12 08:15:11;;;;;;;7.85;4.70;;;;;;;31.60;27.28;101409.44;5030226;28;20100;-83
2023/06/12 08:17:36;;;;;;;8.82;5.10;;;;;;;31.53;26.80;101410.41;5035999;28;20098;-82
2023/06/12 08:20:08;;;;;;;11.00;5.32;;;;;;;31.42;26.47;101410.41;5031483;28;20472;-81
2023/06/12 08:22:34;;;;;;;7.00;4.97;;;;;;;31.42;27.05;101410.41;5021902;28;20508;-82
2023/06/12 08:25:03;;;;;;;8.35;4.95;;;;;;;31.64;26.76;101414.19;5031036;28;20029;-82
2023/06/12 08:27:29;;;;;;;8.57;4.93;;;;;;;31.78;26.06;101403.72;5035778;28;20025;-83
2023/06/12 08:29:54;;;;;;;7.88;4.78;;;;;;;32.12;26.45;101413.97;5036070;28;20109;-83
2023/06/12 08:32:20;;;;;;;7.65;4.78;;;;;;;32.13;25.42;101404.66;5035701;28;20021;-83
2023/06/12 08:34:45;;;;;;;7.97;4.47;;;;;;;32.36;25.84;101412.75;5032974;28;20033;-83
2023/06/12 08:37:11;;;;;;;5.95;4.10;;;;;;;32.45;25.50;101418.66;5031422;28;20033;-82
2023/06/12 08:39:36;;;;;;;7.00;4.53;;;;;;;32.56;25.54;101408.63;5030698;28;20034;-82
2023/06/12 08:42:07;;;;;;;7.03;4.23;;;;;;;32.55;25.74;101409.75;5029461;28;20112;-82
2023/06/12 08:44:34;;;;;;;7.85;4.68;;;;;;;32.69;25.98;101407.50;5031097;28;20272;-81
2023/06/12 08:47:03;;;;;;;6.38;4.30;;;;;;;32.89;25.40;101410.56;5022047;28;20037;-82
2023/06/12 08:49:30;;;;;;;7.38;4.10;;;;;;;33.15;25.58;101405.38;5033073;28;20025;-82
2023/06/12 08:51:56;;;;;;;5.05;3.95;;;;;;;33.21;24.68;101406.31;5034272;28;20110;-82
2023/06/12 08:54:22;;;;;;;7.95;4.18;;;;;;;33.47;25.04;101404.69;5034542;28;20471;-83
2023/06/12 08:56:48;;;;;;;8.02;4.40;;;;;;;33.61;24.54;101400.47;5032537;28;20065;-82
2023/06/12 08:59:14;;;;;;;4.70;4.00;;;;;;;33.63;23.71;101402.97;5034496;28;20077;-83
2023/06/12 09:01:41;;;;;;;6.28;4.30;;;;;;;33.78;24.08;101405.06;5020871;28;20123;-83
2023/06/12 09:04:13;;;;;;;10.52;4.30;;;;;;;33.67;23.55;101402.16;5031224;28;20120;-83
2023/06/12 09:06:42;;;;;;;8.38;4.55;;;;;;;33.87;23.58;101404.31;5033300;28;20025;-82
2023/06/12 09:09:08;;;;;;;8.98;4.38;;;;;;;34.03;23.88;101394.28;5034096;28;20549;-83
2023/06/12 09:11:37;;;;;;;10.27;4.03;;;;;;;33.96;23.89;101401.09;5032534;28;20021;-83
2023/06/12 09:14:03;;;;;;;7.10;4.20;;;;;;;34.19;24.40;101394.41;5030140;28;20025;-83
2023/06/12 09:16:28;;;;;;;4.60;4.20;;;;;;;34.26;23.52;101392.31;5035279;28;20369;-83
2023/06/12 09:18:54;;;;;;;7.50;3.97;;;;;;;34.30;23.27;101379.63;5038441;28;20026;-83
2023/06/12 09:21:24;;;;;;;8.73;4.15;;;;;;;34.22;23.49;101382.88;5047966;28;20057;-82
2023/06/12 09:23:52;;;;;;;8.82;4.15;;;;;;;34.33;23.06;101383.81;5039580;28;20044;-82
2023/06/12 09:26:21;;;;;;;9.57;4.23;;;;;;;34.60;23.14;101383.72;5038821;28;20049;-82
2023/06/12 09:28:50;;;;;;;6.20;4.38;;;;;;;34.47;22.96;101383.09;5036946;28;20495;-82
2023/06/12 09:31:15;;;;;;;6.93;4.10;;;;;;;34.38;22.41;101386.59;5035703;28;20120;-83
2023/06/12 09:33:41;;;;;;;5.57;3.90;;;;;;;34.54;22.68;101384.75;5033067;28;20060;-83
2023/06/12 09:36:10;;;;;;;4.97;3.88;;;;;;;34.63;22.77;101380.44;5035392;28;20022;-82
2023/06/12 09:38:36;;;;;;;6.45;4.63;;;;;;;34.79;22.31;101381.34;5024303;28;20044;-83
2023/06/12 09:41:03;;;;;;;5.53;3.85;;;;;;;34.67;22.45;101392.56;5028690;28;20132;-82
2023/06/12 09:43:30;;;;;;;6.03;4.10;;;;;;;34.66;21.97;101388.19;5030952;28;20028;-83
2023/06/12 09:45:55;;;;;;;5.40;4.13;;;;;;;34.41;22.05;101381.38;5035812;28;20033;-82
2023/06/12 09:48:21;;;;;;;7.50;4.00;;;;;;;34.43;22.62;101372.84;5037430;28;20461;-82
2023/06/12 09:50:46;;;;;;;7.37;4.10;;;;;;;34.57;22.40;101379.53;5041679;28;20026;-82
2023/06/12 09:53:16;;;;;;;6.00;3.60;;;;;;;34.30;22.11;101387.91;5036959;28;20331;-82
2023/06/12 09:55:44;;;;;;;6.72;3.65;;;;;;;34.12;21.78;101389.13;5041043;28;20513;-82
2023/06/12 09:58:12;;;;;;;5.25;3.92;;;;;;;34.24;22.25;101387.06;5047288;28;20025;-83
2023/06/12 10:00:38;;;;;;;6.03;3.83;;;;;;;34.56;21.87;101386.19;5043867;28;20080;-82
2023/06/12 10:03:06;;;;;;;7.45;4.15;;;;;;;34.32;22.11;101380.19;5050107;28;20033;-82
2023/06/12 10:05:37;;;;;;;6.28;4.00;;;;;;;34.44;22.31;101383.63;5040912;28;20057;-82
2023/06/12 10:08:05;;;;;;;4.50;4.10;;;;;;;34.97;21.96;101388.34;5039709;28;20017;-83
2023/06/12 10:10:31;;;;;;;8.45;4.20;;;;;;;34.92;21.46;101380.06;5038413;28;20034;-81
2023/06/12 10:12:56;;;;;;;6.60;3.90;;;;;;;35.16;21.94;101367.47;5033599;28;20033;-83
2023/06/12 10:15:23;;;;;;;4.65;3.90;;;;;;;35.36;22.49;101363.97;5037947;28;20030;-83
2023/06/12 10:17:51;;;;;;;5.93;4.28;;;;;;;35.47;21.93;101364.81;5045852;28;20078;-82
2023/06/12 10:20:18;;;;;;;8.35;4.10;;;;;;;35.41;21.29;101365.06;5038495;28;20056;-83
2023/06/12 10:22:45;;;;;;;6.55;3.70;;;;;;;35.36;21.09;101358.44;5037800;28;20067;-82
2023/06/12 10:25:10;;;;;;;5.32;3.90;;;;;;;35.26;21.40;101360.34;5035157;28;20037;-83
2023/06/12 10:27:37;;;;;;;7.97;3.63;;;;;;;35.29;21.79;101363.41;5036176;28;20041;-82
2023/06/12 10:30:04;;;;;;;7.93;4.15;;;;;;;35.20;20.93;101370.50;5037172;28;20025;-83
2023/06/12 10:32:31;;;;;;;5.13;3.90;;;;;;;35.13;21.18;101364.41;5037463;28;20025;-82
2023/06/12 10:34:57;;;;;;;4.73;4.20;;;;;;;35.09;20.93;101361.38;5032647;28;20038;-83
2023/06/12 10:37:38;;;;;;;4.75;3.53;;;;;;;35.29;21.92;101359.78;5025094;28;20026;-83
2023/06/12 10:40:07;;;;;;;7.78;4.00;;;;;;;35.34;21.76;101344.09;5038057;28;20040;-83
2023/06/12 10:42:45;;;;;;;5.28;3.50;;;;;;;35.63;21.46;101349.09;5028232;28;20052;-82
2023/06/12 10:45:14;;;;;;;4.72;3.50;;;;;;;35.51;20.46;101354.88;5037878;28;20029;-82
2023/06/12 10:47:40;;;;;;;7.15;4.15;;;;;;;35.79;21.21;101343.63;5036893;28;20029;-83
2023/06/12 10:50:06;;;;;;;8.60;3.63;;;;;;;35.75;20.50;101349.69;5037405;28;20585;-83
2023/06/12 10:52:31;;;;;;;7.55;4.00;;;;;;;35.83;20.48;101341.97;5028308;28;20359;-82
2023/06/12 10:55:17;;;;;;;4.40;3.75;;;;;;;36.02;21.58;101332.00;5038641;28;20025;-82
2023/06/12 10:58:18;;;;;;;7.78;3.85;;;;;;;36.27;20.88;101336.72;5032574;28;20056;-82
2023/06/12 11:00:50;;;;;;;5.35;3.97;;;;;;;35.94;20.09;101329.78;4993618;28;20049;-82
2023/06/12 11:03:21;;;;;;;7.07;3.90;;;;;;;36.26;20.73;101339.78;5036875;28;20026;-82
2023/06/12 11:05:51;;;;;;;4.95;3.72;;;;;;;36.20;20.41;101333.38;5039033;28;20033;-81
2023/06/12 11:08:17;;;;;;;7.78;4.10;;;;;;;36.20;19.96;101332.56;5042782;28;20084;-82
2023/06/12 11:10:43;;;;;;;5.22;3.55;;;;;;;36.26;21.05;101332.31;5034068;28;20033;-82
2023/06/12 11:13:09;;;;;;;5.72;4.03;;;;;;;36.18;20.46;101327.31;5039103;28;20052;-83
2023/06/12 11:15:45;;;;;;;8.15;3.78;;;;;;;36.14;20.92;101312.38;5039485;28;20032;-82
2023/06/12 11:18:12;;;;;;;7.07;3.92;;;;;;;35.93;20.91;101333.69;5038884;28;20021;-83
2023/06/12 11:20:39;;;;;;;6.55;4.43;;;;;;;35.94;21.07;101327.03;5035266;28;20053;-82